<?xml version="1.0" encoding="UTF-8" standalone="no" ?>
<gpx xmlns="http://www.topografix.com/GPX/1/1" xmlns:xsi="http://www.w3.org/2001/XMLSchema-instance" xsi:schemaLocation="http://www.topografix.com/GPX/1/1 http://www.topografix.com/GPX/1/1/gpx.xsd" version="1.1" creator="VisuGPX - https://www.visugpx.com">
  <metadata>
    <name>Course à pied le matin</name>
  </metadata>
  <trk>
    <name><![CDATA[Course à pied le matin_1]]></name>
    <trkseg>
      <trkpt lat="43.64726" lon="1.37648">
        <ele>153</ele>
        <time>2023-07-08T05:18:48Z</time>
      </trkpt>
      <trkpt lat="43.64723" lon="1.37649">
        <ele>152</ele>
        <time>2023-07-08T05:18:50Z</time>
      </trkpt>
      <trkpt lat="43.64721" lon="1.37649">
        <ele>152</ele>
        <time>2023-07-08T05:18:51Z</time>
      </trkpt>
      <trkpt lat="43.64721" lon="1.37649">
        <ele>152</ele>
        <time>2023-07-08T05:18:52Z</time>
      </trkpt>
      <trkpt lat="43.64718" lon="1.37651">
        <ele>152</ele>
        <time>2023-07-08T05:18:53Z</time>
      </trkpt>
      <trkpt lat="43.64718" lon="1.37651">
        <ele>152</ele>
        <time>2023-07-08T05:18:54Z</time>
      </trkpt>
      <trkpt lat="43.64715" lon="1.37652">
        <ele>152</ele>
        <time>2023-07-08T05:18:55Z</time>
      </trkpt>
      <trkpt lat="43.64715" lon="1.37652">
        <ele>152</ele>
        <time>2023-07-08T05:18:56Z</time>
      </trkpt>
      <trkpt lat="43.64712" lon="1.37655">
        <ele>152</ele>
        <time>2023-07-08T05:18:57Z</time>
      </trkpt>
      <trkpt lat="43.6471" lon="1.37656">
        <ele>152</ele>
        <time>2023-07-08T05:18:58Z</time>
      </trkpt>
      <trkpt lat="43.64708" lon="1.37657">
        <ele>152</ele>
        <time>2023-07-08T05:18:59Z</time>
      </trkpt>
      <trkpt lat="43.64707" lon="1.37659">
        <ele>152</ele>
        <time>2023-07-08T05:19:00Z</time>
      </trkpt>
      <trkpt lat="43.64707" lon="1.37659">
        <ele>152</ele>
        <time>2023-07-08T05:19:01Z</time>
      </trkpt>
      <trkpt lat="43.64705" lon="1.3766">
        <ele>152</ele>
        <time>2023-07-08T05:19:02Z</time>
      </trkpt>
      <trkpt lat="43.64705" lon="1.3766">
        <ele>152</ele>
        <time>2023-07-08T05:19:03Z</time>
      </trkpt>
      <trkpt lat="43.64705" lon="1.3766">
        <ele>152</ele>
        <time>2023-07-08T05:19:04Z</time>
      </trkpt>
      <trkpt lat="43.64705" lon="1.3766">
        <ele>152</ele>
        <time>2023-07-08T05:19:05Z</time>
      </trkpt>
      <trkpt lat="43.64703" lon="1.37661">
        <ele>152</ele>
        <time>2023-07-08T05:19:06Z</time>
      </trkpt>
      <trkpt lat="43.64703" lon="1.37661">
        <ele>152</ele>
        <time>2023-07-08T05:19:07Z</time>
      </trkpt>
      <trkpt lat="43.64703" lon="1.37661">
        <ele>152</ele>
        <time>2023-07-08T05:19:08Z</time>
      </trkpt>
      <trkpt lat="43.64703" lon="1.37661">
        <ele>152</ele>
        <time>2023-07-08T05:19:09Z</time>
      </trkpt>
      <trkpt lat="43.64703" lon="1.37661">
        <ele>152</ele>
        <time>2023-07-08T05:19:10Z</time>
      </trkpt>
      <trkpt lat="43.64703" lon="1.37661">
        <ele>152</ele>
        <time>2023-07-08T05:19:11Z</time>
      </trkpt>
      <trkpt lat="43.647" lon="1.37662">
        <ele>152</ele>
        <time>2023-07-08T05:19:12Z</time>
      </trkpt>
      <trkpt lat="43.647" lon="1.37662">
        <ele>153</ele>
        <time>2023-07-08T05:19:13Z</time>
      </trkpt>
      <trkpt lat="43.64696" lon="1.37662">
        <ele>153</ele>
        <time>2023-07-08T05:19:14Z</time>
      </trkpt>
      <trkpt lat="43.64694" lon="1.37663">
        <ele>153</ele>
        <time>2023-07-08T05:19:15Z</time>
      </trkpt>
      <trkpt lat="43.64694" lon="1.37663">
        <ele>153</ele>
        <time>2023-07-08T05:19:16Z</time>
      </trkpt>
      <trkpt lat="43.64691" lon="1.37663">
        <ele>153</ele>
        <time>2023-07-08T05:19:17Z</time>
      </trkpt>
      <trkpt lat="43.64688" lon="1.37664">
        <ele>153</ele>
        <time>2023-07-08T05:19:18Z</time>
      </trkpt>
      <trkpt lat="43.64686" lon="1.37664">
        <ele>153</ele>
        <time>2023-07-08T05:19:19Z</time>
      </trkpt>
      <trkpt lat="43.64684" lon="1.37664">
        <ele>153</ele>
        <time>2023-07-08T05:19:20Z</time>
      </trkpt>
      <trkpt lat="43.64681" lon="1.37664">
        <ele>153</ele>
        <time>2023-07-08T05:19:21Z</time>
      </trkpt>
      <trkpt lat="43.64677" lon="1.37664">
        <ele>152</ele>
        <time>2023-07-08T05:19:22Z</time>
      </trkpt>
      <trkpt lat="43.64676" lon="1.37663">
        <ele>152</ele>
        <time>2023-07-08T05:19:23Z</time>
      </trkpt>
      <trkpt lat="43.64673" lon="1.37663">
        <ele>152</ele>
        <time>2023-07-08T05:19:24Z</time>
      </trkpt>
      <trkpt lat="43.64671" lon="1.37662">
        <ele>152</ele>
        <time>2023-07-08T05:19:25Z</time>
      </trkpt>
      <trkpt lat="43.64668" lon="1.37661">
        <ele>152</ele>
        <time>2023-07-08T05:19:26Z</time>
      </trkpt>
      <trkpt lat="43.64666" lon="1.37661">
        <ele>152</ele>
        <time>2023-07-08T05:19:27Z</time>
      </trkpt>
      <trkpt lat="43.64664" lon="1.37662">
        <ele>152</ele>
        <time>2023-07-08T05:19:28Z</time>
      </trkpt>
      <trkpt lat="43.64661" lon="1.37662">
        <ele>152</ele>
        <time>2023-07-08T05:19:29Z</time>
      </trkpt>
      <trkpt lat="43.6466" lon="1.37662">
        <ele>152</ele>
        <time>2023-07-08T05:19:30Z</time>
      </trkpt>
      <trkpt lat="43.64657" lon="1.37663">
        <ele>152</ele>
        <time>2023-07-08T05:19:31Z</time>
      </trkpt>
      <trkpt lat="43.64654" lon="1.37664">
        <ele>152</ele>
        <time>2023-07-08T05:19:32Z</time>
      </trkpt>
      <trkpt lat="43.64652" lon="1.37666">
        <ele>152</ele>
        <time>2023-07-08T05:19:33Z</time>
      </trkpt>
      <trkpt lat="43.64649" lon="1.37667">
        <ele>152</ele>
        <time>2023-07-08T05:19:34Z</time>
      </trkpt>
      <trkpt lat="43.64649" lon="1.37667">
        <ele>152</ele>
        <time>2023-07-08T05:19:35Z</time>
      </trkpt>
      <trkpt lat="43.64649" lon="1.37667">
        <ele>152</ele>
        <time>2023-07-08T05:19:36Z</time>
      </trkpt>
      <trkpt lat="43.64645" lon="1.37668">
        <ele>152</ele>
        <time>2023-07-08T05:19:37Z</time>
      </trkpt>
      <trkpt lat="43.64645" lon="1.37668">
        <ele>152</ele>
        <time>2023-07-08T05:19:38Z</time>
      </trkpt>
      <trkpt lat="43.64642" lon="1.37669">
        <ele>152</ele>
        <time>2023-07-08T05:19:39Z</time>
      </trkpt>
      <trkpt lat="43.64642" lon="1.37669">
        <ele>152</ele>
        <time>2023-07-08T05:19:40Z</time>
      </trkpt>
      <trkpt lat="43.6464" lon="1.37673">
        <ele>152</ele>
        <time>2023-07-08T05:19:41Z</time>
      </trkpt>
      <trkpt lat="43.64637" lon="1.37674">
        <ele>152</ele>
        <time>2023-07-08T05:19:42Z</time>
      </trkpt>
      <trkpt lat="43.64635" lon="1.37676">
        <ele>153</ele>
        <time>2023-07-08T05:19:43Z</time>
      </trkpt>
      <trkpt lat="43.64633" lon="1.37677">
        <ele>153</ele>
        <time>2023-07-08T05:19:44Z</time>
      </trkpt>
      <trkpt lat="43.64631" lon="1.37679">
        <ele>153</ele>
        <time>2023-07-08T05:19:45Z</time>
      </trkpt>
      <trkpt lat="43.64629" lon="1.37681">
        <ele>152</ele>
        <time>2023-07-08T05:19:46Z</time>
      </trkpt>
      <trkpt lat="43.64627" lon="1.37683">
        <ele>151</ele>
        <time>2023-07-08T05:19:47Z</time>
      </trkpt>
      <trkpt lat="43.64626" lon="1.37685">
        <ele>151</ele>
        <time>2023-07-08T05:19:48Z</time>
      </trkpt>
      <trkpt lat="43.64625" lon="1.37687">
        <ele>152</ele>
        <time>2023-07-08T05:19:49Z</time>
      </trkpt>
      <trkpt lat="43.64625" lon="1.3769">
        <ele>152</ele>
        <time>2023-07-08T05:19:50Z</time>
      </trkpt>
      <trkpt lat="43.64624" lon="1.37692">
        <ele>151</ele>
        <time>2023-07-08T05:19:51Z</time>
      </trkpt>
      <trkpt lat="43.64624" lon="1.37695">
        <ele>151</ele>
        <time>2023-07-08T05:19:52Z</time>
      </trkpt>
      <trkpt lat="43.64623" lon="1.37698">
        <ele>151</ele>
        <time>2023-07-08T05:19:53Z</time>
      </trkpt>
      <trkpt lat="43.64622" lon="1.377">
        <ele>151</ele>
        <time>2023-07-08T05:19:54Z</time>
      </trkpt>
      <trkpt lat="43.64621" lon="1.37703">
        <ele>151</ele>
        <time>2023-07-08T05:19:55Z</time>
      </trkpt>
      <trkpt lat="43.6462" lon="1.37706">
        <ele>152</ele>
        <time>2023-07-08T05:19:56Z</time>
      </trkpt>
      <trkpt lat="43.64619" lon="1.37708">
        <ele>152</ele>
        <time>2023-07-08T05:19:57Z</time>
      </trkpt>
      <trkpt lat="43.64617" lon="1.37709">
        <ele>152</ele>
        <time>2023-07-08T05:19:58Z</time>
      </trkpt>
      <trkpt lat="43.64614" lon="1.37712">
        <ele>151</ele>
        <time>2023-07-08T05:19:59Z</time>
      </trkpt>
      <trkpt lat="43.64613" lon="1.37715">
        <ele>151</ele>
        <time>2023-07-08T05:20:00Z</time>
      </trkpt>
      <trkpt lat="43.64612" lon="1.37717">
        <ele>151</ele>
        <time>2023-07-08T05:20:01Z</time>
      </trkpt>
      <trkpt lat="43.64611" lon="1.37721">
        <ele>151</ele>
        <time>2023-07-08T05:20:02Z</time>
      </trkpt>
      <trkpt lat="43.6461" lon="1.37723">
        <ele>152</ele>
        <time>2023-07-08T05:20:03Z</time>
      </trkpt>
      <trkpt lat="43.6461" lon="1.37726">
        <ele>152</ele>
        <time>2023-07-08T05:20:04Z</time>
      </trkpt>
      <trkpt lat="43.64609" lon="1.37729">
        <ele>152</ele>
        <time>2023-07-08T05:20:05Z</time>
      </trkpt>
      <trkpt lat="43.64608" lon="1.37732">
        <ele>152</ele>
        <time>2023-07-08T05:20:06Z</time>
      </trkpt>
      <trkpt lat="43.64606" lon="1.37737">
        <ele>152</ele>
        <time>2023-07-08T05:20:07Z</time>
      </trkpt>
      <trkpt lat="43.64606" lon="1.37738">
        <ele>152</ele>
        <time>2023-07-08T05:20:08Z</time>
      </trkpt>
      <trkpt lat="43.64604" lon="1.37741">
        <ele>152</ele>
        <time>2023-07-08T05:20:09Z</time>
      </trkpt>
      <trkpt lat="43.64603" lon="1.37744">
        <ele>152</ele>
        <time>2023-07-08T05:20:10Z</time>
      </trkpt>
      <trkpt lat="43.64602" lon="1.37747">
        <ele>152</ele>
        <time>2023-07-08T05:20:11Z</time>
      </trkpt>
      <trkpt lat="43.64602" lon="1.3775">
        <ele>152</ele>
        <time>2023-07-08T05:20:12Z</time>
      </trkpt>
      <trkpt lat="43.646" lon="1.37753">
        <ele>152</ele>
        <time>2023-07-08T05:20:13Z</time>
      </trkpt>
      <trkpt lat="43.64599" lon="1.37756">
        <ele>152</ele>
        <time>2023-07-08T05:20:14Z</time>
      </trkpt>
      <trkpt lat="43.64598" lon="1.37758">
        <ele>152</ele>
        <time>2023-07-08T05:20:15Z</time>
      </trkpt>
      <trkpt lat="43.64598" lon="1.37761">
        <ele>151</ele>
        <time>2023-07-08T05:20:16Z</time>
      </trkpt>
      <trkpt lat="43.64597" lon="1.37764">
        <ele>151</ele>
        <time>2023-07-08T05:20:17Z</time>
      </trkpt>
      <trkpt lat="43.64596" lon="1.37767">
        <ele>151</ele>
        <time>2023-07-08T05:20:18Z</time>
      </trkpt>
      <trkpt lat="43.64595" lon="1.3777">
        <ele>151</ele>
        <time>2023-07-08T05:20:19Z</time>
      </trkpt>
      <trkpt lat="43.64594" lon="1.37773">
        <ele>151</ele>
        <time>2023-07-08T05:20:20Z</time>
      </trkpt>
      <trkpt lat="43.64593" lon="1.37776">
        <ele>151</ele>
        <time>2023-07-08T05:20:21Z</time>
      </trkpt>
      <trkpt lat="43.64593" lon="1.37778">
        <ele>151</ele>
        <time>2023-07-08T05:20:22Z</time>
      </trkpt>
      <trkpt lat="43.64592" lon="1.37782">
        <ele>151</ele>
        <time>2023-07-08T05:20:23Z</time>
      </trkpt>
      <trkpt lat="43.64591" lon="1.37785">
        <ele>151</ele>
        <time>2023-07-08T05:20:24Z</time>
      </trkpt>
      <trkpt lat="43.6459" lon="1.37788">
        <ele>151</ele>
        <time>2023-07-08T05:20:25Z</time>
      </trkpt>
      <trkpt lat="43.64589" lon="1.3779">
        <ele>151</ele>
        <time>2023-07-08T05:20:26Z</time>
      </trkpt>
      <trkpt lat="43.64588" lon="1.37793">
        <ele>151</ele>
        <time>2023-07-08T05:20:27Z</time>
      </trkpt>
      <trkpt lat="43.64587" lon="1.37795">
        <ele>151</ele>
        <time>2023-07-08T05:20:28Z</time>
      </trkpt>
      <trkpt lat="43.64585" lon="1.37798">
        <ele>151</ele>
        <time>2023-07-08T05:20:29Z</time>
      </trkpt>
      <trkpt lat="43.64584" lon="1.37801">
        <ele>151</ele>
        <time>2023-07-08T05:20:30Z</time>
      </trkpt>
      <trkpt lat="43.64584" lon="1.37804">
        <ele>151</ele>
        <time>2023-07-08T05:20:31Z</time>
      </trkpt>
      <trkpt lat="43.64583" lon="1.37806">
        <ele>151</ele>
        <time>2023-07-08T05:20:32Z</time>
      </trkpt>
      <trkpt lat="43.64582" lon="1.37809">
        <ele>151</ele>
        <time>2023-07-08T05:20:33Z</time>
      </trkpt>
      <trkpt lat="43.64581" lon="1.37811">
        <ele>151</ele>
        <time>2023-07-08T05:20:34Z</time>
      </trkpt>
      <trkpt lat="43.64579" lon="1.37814">
        <ele>151</ele>
        <time>2023-07-08T05:20:35Z</time>
      </trkpt>
      <trkpt lat="43.64578" lon="1.37817">
        <ele>151</ele>
        <time>2023-07-08T05:20:36Z</time>
      </trkpt>
      <trkpt lat="43.64577" lon="1.3782">
        <ele>151</ele>
        <time>2023-07-08T05:20:37Z</time>
      </trkpt>
      <trkpt lat="43.64576" lon="1.37823">
        <ele>151</ele>
        <time>2023-07-08T05:20:38Z</time>
      </trkpt>
      <trkpt lat="43.64575" lon="1.37825">
        <ele>151</ele>
        <time>2023-07-08T05:20:39Z</time>
      </trkpt>
      <trkpt lat="43.64574" lon="1.37828">
        <ele>151</ele>
        <time>2023-07-08T05:20:40Z</time>
      </trkpt>
      <trkpt lat="43.64572" lon="1.37831">
        <ele>151</ele>
        <time>2023-07-08T05:20:41Z</time>
      </trkpt>
      <trkpt lat="43.64571" lon="1.37834">
        <ele>151</ele>
        <time>2023-07-08T05:20:42Z</time>
      </trkpt>
      <trkpt lat="43.64569" lon="1.37836">
        <ele>151</ele>
        <time>2023-07-08T05:20:43Z</time>
      </trkpt>
      <trkpt lat="43.64566" lon="1.37838">
        <ele>151</ele>
        <time>2023-07-08T05:20:44Z</time>
      </trkpt>
      <trkpt lat="43.64564" lon="1.37839">
        <ele>151</ele>
        <time>2023-07-08T05:20:45Z</time>
      </trkpt>
      <trkpt lat="43.64562" lon="1.3784">
        <ele>151</ele>
        <time>2023-07-08T05:20:46Z</time>
      </trkpt>
      <trkpt lat="43.64559" lon="1.3784">
        <ele>151</ele>
        <time>2023-07-08T05:20:47Z</time>
      </trkpt>
      <trkpt lat="43.64557" lon="1.37839">
        <ele>151</ele>
        <time>2023-07-08T05:20:48Z</time>
      </trkpt>
      <trkpt lat="43.64554" lon="1.37839">
        <ele>151</ele>
        <time>2023-07-08T05:20:49Z</time>
      </trkpt>
      <trkpt lat="43.64552" lon="1.37839">
        <ele>151</ele>
        <time>2023-07-08T05:20:50Z</time>
      </trkpt>
      <trkpt lat="43.6455" lon="1.37838">
        <ele>151</ele>
        <time>2023-07-08T05:20:51Z</time>
      </trkpt>
      <trkpt lat="43.64547" lon="1.37837">
        <ele>151</ele>
        <time>2023-07-08T05:20:52Z</time>
      </trkpt>
      <trkpt lat="43.64545" lon="1.37836">
        <ele>151</ele>
        <time>2023-07-08T05:20:53Z</time>
      </trkpt>
      <trkpt lat="43.64543" lon="1.37835">
        <ele>151</ele>
        <time>2023-07-08T05:20:54Z</time>
      </trkpt>
      <trkpt lat="43.64541" lon="1.37834">
        <ele>151</ele>
        <time>2023-07-08T05:20:55Z</time>
      </trkpt>
      <trkpt lat="43.64539" lon="1.37833">
        <ele>151</ele>
        <time>2023-07-08T05:20:56Z</time>
      </trkpt>
      <trkpt lat="43.64537" lon="1.37831">
        <ele>151</ele>
        <time>2023-07-08T05:20:57Z</time>
      </trkpt>
      <trkpt lat="43.64535" lon="1.3783">
        <ele>151</ele>
        <time>2023-07-08T05:20:58Z</time>
      </trkpt>
      <trkpt lat="43.64532" lon="1.37829">
        <ele>151</ele>
        <time>2023-07-08T05:20:59Z</time>
      </trkpt>
      <trkpt lat="43.6453" lon="1.37828">
        <ele>151</ele>
        <time>2023-07-08T05:21:00Z</time>
      </trkpt>
      <trkpt lat="43.64527" lon="1.37825">
        <ele>151</ele>
        <time>2023-07-08T05:21:01Z</time>
      </trkpt>
      <trkpt lat="43.64526" lon="1.37824">
        <ele>151</ele>
        <time>2023-07-08T05:21:02Z</time>
      </trkpt>
      <trkpt lat="43.64524" lon="1.37823">
        <ele>151</ele>
        <time>2023-07-08T05:21:03Z</time>
      </trkpt>
      <trkpt lat="43.64522" lon="1.37822">
        <ele>151</ele>
        <time>2023-07-08T05:21:04Z</time>
      </trkpt>
      <trkpt lat="43.64519" lon="1.37821">
        <ele>151</ele>
        <time>2023-07-08T05:21:05Z</time>
      </trkpt>
      <trkpt lat="43.64517" lon="1.37819">
        <ele>151</ele>
        <time>2023-07-08T05:21:06Z</time>
      </trkpt>
      <trkpt lat="43.64515" lon="1.37818">
        <ele>151</ele>
        <time>2023-07-08T05:21:07Z</time>
      </trkpt>
      <trkpt lat="43.64512" lon="1.37817">
        <ele>151</ele>
        <time>2023-07-08T05:21:08Z</time>
      </trkpt>
      <trkpt lat="43.6451" lon="1.37816">
        <ele>151</ele>
        <time>2023-07-08T05:21:09Z</time>
      </trkpt>
      <trkpt lat="43.64508" lon="1.37815">
        <ele>151</ele>
        <time>2023-07-08T05:21:10Z</time>
      </trkpt>
      <trkpt lat="43.64505" lon="1.37813">
        <ele>151</ele>
        <time>2023-07-08T05:21:11Z</time>
      </trkpt>
      <trkpt lat="43.64504" lon="1.37812">
        <ele>151</ele>
        <time>2023-07-08T05:21:12Z</time>
      </trkpt>
      <trkpt lat="43.64502" lon="1.37811">
        <ele>151</ele>
        <time>2023-07-08T05:21:13Z</time>
      </trkpt>
      <trkpt lat="43.64502" lon="1.37811">
        <ele>151</ele>
        <time>2023-07-08T05:21:14Z</time>
      </trkpt>
      <trkpt lat="43.64499" lon="1.3781">
        <ele>151</ele>
        <time>2023-07-08T05:21:15Z</time>
      </trkpt>
      <trkpt lat="43.64499" lon="1.3781">
        <ele>151</ele>
        <time>2023-07-08T05:21:16Z</time>
      </trkpt>
      <trkpt lat="43.64496" lon="1.37808">
        <ele>151</ele>
        <time>2023-07-08T05:21:17Z</time>
      </trkpt>
      <trkpt lat="43.64494" lon="1.37807">
        <ele>151</ele>
        <time>2023-07-08T05:21:18Z</time>
      </trkpt>
      <trkpt lat="43.64492" lon="1.37806">
        <ele>151</ele>
        <time>2023-07-08T05:21:19Z</time>
      </trkpt>
      <trkpt lat="43.6449" lon="1.37805">
        <ele>151</ele>
        <time>2023-07-08T05:21:20Z</time>
      </trkpt>
      <trkpt lat="43.64488" lon="1.37804">
        <ele>151</ele>
        <time>2023-07-08T05:21:21Z</time>
      </trkpt>
      <trkpt lat="43.64485" lon="1.37803">
        <ele>152</ele>
        <time>2023-07-08T05:21:22Z</time>
      </trkpt>
      <trkpt lat="43.64483" lon="1.37803">
        <ele>152</ele>
        <time>2023-07-08T05:21:23Z</time>
      </trkpt>
      <trkpt lat="43.64481" lon="1.37802">
        <ele>152</ele>
        <time>2023-07-08T05:21:24Z</time>
      </trkpt>
      <trkpt lat="43.64478" lon="1.37802">
        <ele>152</ele>
        <time>2023-07-08T05:21:25Z</time>
      </trkpt>
      <trkpt lat="43.64477" lon="1.37802">
        <ele>152</ele>
        <time>2023-07-08T05:21:26Z</time>
      </trkpt>
      <trkpt lat="43.64477" lon="1.37802">
        <ele>152</ele>
        <time>2023-07-08T05:21:27Z</time>
      </trkpt>
      <trkpt lat="43.64473" lon="1.37804">
        <ele>153</ele>
        <time>2023-07-08T05:21:28Z</time>
      </trkpt>
      <trkpt lat="43.64472" lon="1.37806">
        <ele>153</ele>
        <time>2023-07-08T05:21:29Z</time>
      </trkpt>
      <trkpt lat="43.6447" lon="1.37808">
        <ele>153</ele>
        <time>2023-07-08T05:21:30Z</time>
      </trkpt>
      <trkpt lat="43.64469" lon="1.37811">
        <ele>153</ele>
        <time>2023-07-08T05:21:31Z</time>
      </trkpt>
      <trkpt lat="43.64468" lon="1.37814">
        <ele>152</ele>
        <time>2023-07-08T05:21:32Z</time>
      </trkpt>
      <trkpt lat="43.64468" lon="1.37817">
        <ele>152</ele>
        <time>2023-07-08T05:21:33Z</time>
      </trkpt>
      <trkpt lat="43.64467" lon="1.3782">
        <ele>152</ele>
        <time>2023-07-08T05:21:34Z</time>
      </trkpt>
      <trkpt lat="43.64466" lon="1.37823">
        <ele>152</ele>
        <time>2023-07-08T05:21:35Z</time>
      </trkpt>
      <trkpt lat="43.64465" lon="1.37826">
        <ele>152</ele>
        <time>2023-07-08T05:21:36Z</time>
      </trkpt>
      <trkpt lat="43.64464" lon="1.37828">
        <ele>152</ele>
        <time>2023-07-08T05:21:37Z</time>
      </trkpt>
      <trkpt lat="43.64463" lon="1.37831">
        <ele>152</ele>
        <time>2023-07-08T05:21:38Z</time>
      </trkpt>
      <trkpt lat="43.64462" lon="1.37834">
        <ele>152</ele>
        <time>2023-07-08T05:21:39Z</time>
      </trkpt>
      <trkpt lat="43.64461" lon="1.37838">
        <ele>152</ele>
        <time>2023-07-08T05:21:40Z</time>
      </trkpt>
      <trkpt lat="43.6446" lon="1.37839">
        <ele>152</ele>
        <time>2023-07-08T05:21:41Z</time>
      </trkpt>
      <trkpt lat="43.64459" lon="1.37842">
        <ele>152</ele>
        <time>2023-07-08T05:21:42Z</time>
      </trkpt>
      <trkpt lat="43.64458" lon="1.37845">
        <ele>152</ele>
        <time>2023-07-08T05:21:43Z</time>
      </trkpt>
      <trkpt lat="43.64458" lon="1.37848">
        <ele>153</ele>
        <time>2023-07-08T05:21:44Z</time>
      </trkpt>
      <trkpt lat="43.64457" lon="1.37851">
        <ele>153</ele>
        <time>2023-07-08T05:21:45Z</time>
      </trkpt>
      <trkpt lat="43.64456" lon="1.37853">
        <ele>153</ele>
        <time>2023-07-08T05:21:46Z</time>
      </trkpt>
      <trkpt lat="43.64456" lon="1.37853">
        <ele>153</ele>
        <time>2023-07-08T05:21:47Z</time>
      </trkpt>
      <trkpt lat="43.64457" lon="1.37856">
        <ele>152</ele>
        <time>2023-07-08T05:21:48Z</time>
      </trkpt>
      <trkpt lat="43.64461" lon="1.37856">
        <ele>152</ele>
        <time>2023-07-08T05:21:49Z</time>
      </trkpt>
      <trkpt lat="43.64462" lon="1.37857">
        <ele>152</ele>
        <time>2023-07-08T05:21:50Z</time>
      </trkpt>
      <trkpt lat="43.64464" lon="1.37859">
        <ele>151</ele>
        <time>2023-07-08T05:21:51Z</time>
      </trkpt>
      <trkpt lat="43.64465" lon="1.37861">
        <ele>151</ele>
        <time>2023-07-08T05:21:52Z</time>
      </trkpt>
      <trkpt lat="43.64467" lon="1.37864">
        <ele>151</ele>
        <time>2023-07-08T05:21:53Z</time>
      </trkpt>
      <trkpt lat="43.64469" lon="1.37867">
        <ele>151</ele>
        <time>2023-07-08T05:21:54Z</time>
      </trkpt>
      <trkpt lat="43.64469" lon="1.37871">
        <ele>151</ele>
        <time>2023-07-08T05:21:55Z</time>
      </trkpt>
      <trkpt lat="43.64469" lon="1.37875">
        <ele>151</ele>
        <time>2023-07-08T05:21:56Z</time>
      </trkpt>
      <trkpt lat="43.64467" lon="1.37881">
        <ele>151</ele>
        <time>2023-07-08T05:21:57Z</time>
      </trkpt>
      <trkpt lat="43.64466" lon="1.37883">
        <ele>151</ele>
        <time>2023-07-08T05:21:58Z</time>
      </trkpt>
      <trkpt lat="43.64466" lon="1.37887">
        <ele>151</ele>
        <time>2023-07-08T05:21:59Z</time>
      </trkpt>
      <trkpt lat="43.64465" lon="1.3789">
        <ele>151</ele>
        <time>2023-07-08T05:22:00Z</time>
      </trkpt>
      <trkpt lat="43.64464" lon="1.37893">
        <ele>151</ele>
        <time>2023-07-08T05:22:01Z</time>
      </trkpt>
      <trkpt lat="43.64463" lon="1.37896">
        <ele>151</ele>
        <time>2023-07-08T05:22:02Z</time>
      </trkpt>
      <trkpt lat="43.64463" lon="1.37896">
        <ele>150</ele>
        <time>2023-07-08T05:22:03Z</time>
      </trkpt>
      <trkpt lat="43.64462" lon="1.37898">
        <ele>150</ele>
        <time>2023-07-08T05:22:04Z</time>
      </trkpt>
      <trkpt lat="43.64462" lon="1.37898">
        <ele>150</ele>
        <time>2023-07-08T05:22:05Z</time>
      </trkpt>
      <trkpt lat="43.64462" lon="1.37898">
        <ele>151</ele>
        <time>2023-07-08T05:22:06Z</time>
      </trkpt>
      <trkpt lat="43.6446" lon="1.379">
        <ele>151</ele>
        <time>2023-07-08T05:22:07Z</time>
      </trkpt>
      <trkpt lat="43.6446" lon="1.379">
        <ele>151</ele>
        <time>2023-07-08T05:22:08Z</time>
      </trkpt>
      <trkpt lat="43.6446" lon="1.379">
        <ele>151</ele>
        <time>2023-07-08T05:22:09Z</time>
      </trkpt>
      <trkpt lat="43.6446" lon="1.379">
        <ele>151</ele>
        <time>2023-07-08T05:22:10Z</time>
      </trkpt>
      <trkpt lat="43.6446" lon="1.379">
        <ele>151</ele>
        <time>2023-07-08T05:22:11Z</time>
      </trkpt>
      <trkpt lat="43.64459" lon="1.37903">
        <ele>151</ele>
        <time>2023-07-08T05:22:12Z</time>
      </trkpt>
      <trkpt lat="43.64459" lon="1.37903">
        <ele>151</ele>
        <time>2023-07-08T05:22:13Z</time>
      </trkpt>
      <trkpt lat="43.64459" lon="1.37908">
        <ele>151</ele>
        <time>2023-07-08T05:22:14Z</time>
      </trkpt>
      <trkpt lat="43.64459" lon="1.37911">
        <ele>151</ele>
        <time>2023-07-08T05:22:15Z</time>
      </trkpt>
      <trkpt lat="43.64459" lon="1.37915">
        <ele>151</ele>
        <time>2023-07-08T05:22:16Z</time>
      </trkpt>
      <trkpt lat="43.6446" lon="1.37918">
        <ele>151</ele>
        <time>2023-07-08T05:22:17Z</time>
      </trkpt>
      <trkpt lat="43.64461" lon="1.37921">
        <ele>151</ele>
        <time>2023-07-08T05:22:18Z</time>
      </trkpt>
      <trkpt lat="43.64462" lon="1.37924">
        <ele>151</ele>
        <time>2023-07-08T05:22:19Z</time>
      </trkpt>
      <trkpt lat="43.64463" lon="1.37927">
        <ele>151</ele>
        <time>2023-07-08T05:22:20Z</time>
      </trkpt>
      <trkpt lat="43.64465" lon="1.3793">
        <ele>151</ele>
        <time>2023-07-08T05:22:21Z</time>
      </trkpt>
      <trkpt lat="43.64467" lon="1.37932">
        <ele>151</ele>
        <time>2023-07-08T05:22:22Z</time>
      </trkpt>
      <trkpt lat="43.64468" lon="1.37935">
        <ele>151</ele>
        <time>2023-07-08T05:22:23Z</time>
      </trkpt>
      <trkpt lat="43.6447" lon="1.37937">
        <ele>151</ele>
        <time>2023-07-08T05:22:24Z</time>
      </trkpt>
      <trkpt lat="43.64472" lon="1.37939">
        <ele>151</ele>
        <time>2023-07-08T05:22:25Z</time>
      </trkpt>
      <trkpt lat="43.64474" lon="1.37941">
        <ele>151</ele>
        <time>2023-07-08T05:22:26Z</time>
      </trkpt>
      <trkpt lat="43.64477" lon="1.37943">
        <ele>151</ele>
        <time>2023-07-08T05:22:27Z</time>
      </trkpt>
      <trkpt lat="43.64479" lon="1.37945">
        <ele>151</ele>
        <time>2023-07-08T05:22:28Z</time>
      </trkpt>
      <trkpt lat="43.64482" lon="1.37946">
        <ele>151</ele>
        <time>2023-07-08T05:22:29Z</time>
      </trkpt>
      <trkpt lat="43.64484" lon="1.37948">
        <ele>151</ele>
        <time>2023-07-08T05:22:30Z</time>
      </trkpt>
      <trkpt lat="43.64487" lon="1.37949">
        <ele>151</ele>
        <time>2023-07-08T05:22:31Z</time>
      </trkpt>
      <trkpt lat="43.6449" lon="1.37951">
        <ele>151</ele>
        <time>2023-07-08T05:22:32Z</time>
      </trkpt>
      <trkpt lat="43.64492" lon="1.37952">
        <ele>151</ele>
        <time>2023-07-08T05:22:33Z</time>
      </trkpt>
      <trkpt lat="43.64494" lon="1.37953">
        <ele>151</ele>
        <time>2023-07-08T05:22:34Z</time>
      </trkpt>
      <trkpt lat="43.64496" lon="1.37954">
        <ele>151</ele>
        <time>2023-07-08T05:22:35Z</time>
      </trkpt>
      <trkpt lat="43.64499" lon="1.37955">
        <ele>151</ele>
        <time>2023-07-08T05:22:36Z</time>
      </trkpt>
      <trkpt lat="43.64501" lon="1.37957">
        <ele>151</ele>
        <time>2023-07-08T05:22:37Z</time>
      </trkpt>
      <trkpt lat="43.64504" lon="1.37958">
        <ele>151</ele>
        <time>2023-07-08T05:22:38Z</time>
      </trkpt>
      <trkpt lat="43.64506" lon="1.37959">
        <ele>151</ele>
        <time>2023-07-08T05:22:39Z</time>
      </trkpt>
      <trkpt lat="43.64509" lon="1.37961">
        <ele>151</ele>
        <time>2023-07-08T05:22:40Z</time>
      </trkpt>
      <trkpt lat="43.64511" lon="1.37962">
        <ele>151</ele>
        <time>2023-07-08T05:22:41Z</time>
      </trkpt>
      <trkpt lat="43.64513" lon="1.37963">
        <ele>150</ele>
        <time>2023-07-08T05:22:42Z</time>
      </trkpt>
      <trkpt lat="43.64516" lon="1.37965">
        <ele>150</ele>
        <time>2023-07-08T05:22:43Z</time>
      </trkpt>
      <trkpt lat="43.64518" lon="1.37966">
        <ele>150</ele>
        <time>2023-07-08T05:22:44Z</time>
      </trkpt>
      <trkpt lat="43.6452" lon="1.37968">
        <ele>150</ele>
        <time>2023-07-08T05:22:45Z</time>
      </trkpt>
      <trkpt lat="43.64524" lon="1.3797">
        <ele>150</ele>
        <time>2023-07-08T05:22:46Z</time>
      </trkpt>
      <trkpt lat="43.64525" lon="1.37971">
        <ele>151</ele>
        <time>2023-07-08T05:22:47Z</time>
      </trkpt>
      <trkpt lat="43.64527" lon="1.37972">
        <ele>151</ele>
        <time>2023-07-08T05:22:48Z</time>
      </trkpt>
      <trkpt lat="43.6453" lon="1.37973">
        <ele>151</ele>
        <time>2023-07-08T05:22:49Z</time>
      </trkpt>
      <trkpt lat="43.64533" lon="1.37974">
        <ele>150</ele>
        <time>2023-07-08T05:22:50Z</time>
      </trkpt>
      <trkpt lat="43.64535" lon="1.37976">
        <ele>149</ele>
        <time>2023-07-08T05:22:51Z</time>
      </trkpt>
      <trkpt lat="43.64539" lon="1.37977">
        <ele>149</ele>
        <time>2023-07-08T05:22:52Z</time>
      </trkpt>
      <trkpt lat="43.6454" lon="1.37977">
        <ele>149</ele>
        <time>2023-07-08T05:22:53Z</time>
      </trkpt>
      <trkpt lat="43.64542" lon="1.37977">
        <ele>149</ele>
        <time>2023-07-08T05:22:54Z</time>
      </trkpt>
      <trkpt lat="43.64545" lon="1.37978">
        <ele>149</ele>
        <time>2023-07-08T05:22:55Z</time>
      </trkpt>
      <trkpt lat="43.64547" lon="1.37977">
        <ele>149</ele>
        <time>2023-07-08T05:22:56Z</time>
      </trkpt>
      <trkpt lat="43.64549" lon="1.37977">
        <ele>149</ele>
        <time>2023-07-08T05:22:57Z</time>
      </trkpt>
      <trkpt lat="43.64551" lon="1.37976">
        <ele>149</ele>
        <time>2023-07-08T05:22:58Z</time>
      </trkpt>
      <trkpt lat="43.64553" lon="1.37974">
        <ele>149</ele>
        <time>2023-07-08T05:22:59Z</time>
      </trkpt>
      <trkpt lat="43.64555" lon="1.37973">
        <ele>149</ele>
        <time>2023-07-08T05:23:00Z</time>
      </trkpt>
      <trkpt lat="43.64557" lon="1.37971">
        <ele>150</ele>
        <time>2023-07-08T05:23:01Z</time>
      </trkpt>
      <trkpt lat="43.64559" lon="1.37969">
        <ele>150</ele>
        <time>2023-07-08T05:23:02Z</time>
      </trkpt>
      <trkpt lat="43.64561" lon="1.37967">
        <ele>150</ele>
        <time>2023-07-08T05:23:03Z</time>
      </trkpt>
      <trkpt lat="43.64562" lon="1.37964">
        <ele>150</ele>
        <time>2023-07-08T05:23:04Z</time>
      </trkpt>
      <trkpt lat="43.64564" lon="1.37962">
        <ele>150</ele>
        <time>2023-07-08T05:23:05Z</time>
      </trkpt>
      <trkpt lat="43.64565" lon="1.37959">
        <ele>150</ele>
        <time>2023-07-08T05:23:06Z</time>
      </trkpt>
      <trkpt lat="43.64566" lon="1.37957">
        <ele>150</ele>
        <time>2023-07-08T05:23:07Z</time>
      </trkpt>
      <trkpt lat="43.64568" lon="1.37954">
        <ele>150</ele>
        <time>2023-07-08T05:23:08Z</time>
      </trkpt>
      <trkpt lat="43.64568" lon="1.37951">
        <ele>150</ele>
        <time>2023-07-08T05:23:09Z</time>
      </trkpt>
      <trkpt lat="43.64569" lon="1.37948">
        <ele>149</ele>
        <time>2023-07-08T05:23:10Z</time>
      </trkpt>
      <trkpt lat="43.64569" lon="1.37944">
        <ele>149</ele>
        <time>2023-07-08T05:23:11Z</time>
      </trkpt>
      <trkpt lat="43.64569" lon="1.3794">
        <ele>149</ele>
        <time>2023-07-08T05:23:12Z</time>
      </trkpt>
      <trkpt lat="43.64569" lon="1.37935">
        <ele>149</ele>
        <time>2023-07-08T05:23:13Z</time>
      </trkpt>
      <trkpt lat="43.64569" lon="1.37934">
        <ele>149</ele>
        <time>2023-07-08T05:23:14Z</time>
      </trkpt>
      <trkpt lat="43.64568" lon="1.3793">
        <ele>149</ele>
        <time>2023-07-08T05:23:15Z</time>
      </trkpt>
      <trkpt lat="43.64567" lon="1.37927">
        <ele>149</ele>
        <time>2023-07-08T05:23:16Z</time>
      </trkpt>
      <trkpt lat="43.64566" lon="1.37924">
        <ele>149</ele>
        <time>2023-07-08T05:23:17Z</time>
      </trkpt>
      <trkpt lat="43.64565" lon="1.3792">
        <ele>149</ele>
        <time>2023-07-08T05:23:18Z</time>
      </trkpt>
      <trkpt lat="43.64564" lon="1.37918">
        <ele>149</ele>
        <time>2023-07-08T05:23:19Z</time>
      </trkpt>
      <trkpt lat="43.64562" lon="1.37915">
        <ele>149</ele>
        <time>2023-07-08T05:23:20Z</time>
      </trkpt>
      <trkpt lat="43.6456" lon="1.37912">
        <ele>150</ele>
        <time>2023-07-08T05:23:21Z</time>
      </trkpt>
      <trkpt lat="43.64558" lon="1.3791">
        <ele>150</ele>
        <time>2023-07-08T05:23:22Z</time>
      </trkpt>
      <trkpt lat="43.64556" lon="1.37908">
        <ele>150</ele>
        <time>2023-07-08T05:23:23Z</time>
      </trkpt>
      <trkpt lat="43.64554" lon="1.37906">
        <ele>150</ele>
        <time>2023-07-08T05:23:24Z</time>
      </trkpt>
      <trkpt lat="43.64552" lon="1.37904">
        <ele>150</ele>
        <time>2023-07-08T05:23:25Z</time>
      </trkpt>
      <trkpt lat="43.6455" lon="1.37903">
        <ele>150</ele>
        <time>2023-07-08T05:23:26Z</time>
      </trkpt>
      <trkpt lat="43.64547" lon="1.37901">
        <ele>149</ele>
        <time>2023-07-08T05:23:27Z</time>
      </trkpt>
      <trkpt lat="43.64545" lon="1.379">
        <ele>150</ele>
        <time>2023-07-08T05:23:28Z</time>
      </trkpt>
      <trkpt lat="43.64542" lon="1.37899">
        <ele>150</ele>
        <time>2023-07-08T05:23:29Z</time>
      </trkpt>
      <trkpt lat="43.6454" lon="1.37897">
        <ele>150</ele>
        <time>2023-07-08T05:23:30Z</time>
      </trkpt>
      <trkpt lat="43.64537" lon="1.37896">
        <ele>150</ele>
        <time>2023-07-08T05:23:31Z</time>
      </trkpt>
      <trkpt lat="43.64535" lon="1.37894">
        <ele>150</ele>
        <time>2023-07-08T05:23:32Z</time>
      </trkpt>
      <trkpt lat="43.64533" lon="1.37892">
        <ele>150</ele>
        <time>2023-07-08T05:23:33Z</time>
      </trkpt>
      <trkpt lat="43.6453" lon="1.3789">
        <ele>150</ele>
        <time>2023-07-08T05:23:34Z</time>
      </trkpt>
      <trkpt lat="43.64528" lon="1.37889">
        <ele>150</ele>
        <time>2023-07-08T05:23:35Z</time>
      </trkpt>
      <trkpt lat="43.64526" lon="1.37888">
        <ele>150</ele>
        <time>2023-07-08T05:23:36Z</time>
      </trkpt>
      <trkpt lat="43.64524" lon="1.37887">
        <ele>150</ele>
        <time>2023-07-08T05:23:37Z</time>
      </trkpt>
      <trkpt lat="43.64521" lon="1.37886">
        <ele>150</ele>
        <time>2023-07-08T05:23:38Z</time>
      </trkpt>
      <trkpt lat="43.64519" lon="1.37884">
        <ele>150</ele>
        <time>2023-07-08T05:23:39Z</time>
      </trkpt>
      <trkpt lat="43.64517" lon="1.37883">
        <ele>150</ele>
        <time>2023-07-08T05:23:40Z</time>
      </trkpt>
      <trkpt lat="43.64514" lon="1.37881">
        <ele>150</ele>
        <time>2023-07-08T05:23:41Z</time>
      </trkpt>
      <trkpt lat="43.64512" lon="1.3788">
        <ele>150</ele>
        <time>2023-07-08T05:23:42Z</time>
      </trkpt>
      <trkpt lat="43.6451" lon="1.37878">
        <ele>150</ele>
        <time>2023-07-08T05:23:43Z</time>
      </trkpt>
      <trkpt lat="43.64507" lon="1.37877">
        <ele>149</ele>
        <time>2023-07-08T05:23:44Z</time>
      </trkpt>
      <trkpt lat="43.64505" lon="1.37875">
        <ele>149</ele>
        <time>2023-07-08T05:23:45Z</time>
      </trkpt>
      <trkpt lat="43.64503" lon="1.37874">
        <ele>149</ele>
        <time>2023-07-08T05:23:46Z</time>
      </trkpt>
      <trkpt lat="43.645" lon="1.37872">
        <ele>149</ele>
        <time>2023-07-08T05:23:47Z</time>
      </trkpt>
      <trkpt lat="43.64498" lon="1.37871">
        <ele>149</ele>
        <time>2023-07-08T05:23:48Z</time>
      </trkpt>
      <trkpt lat="43.64495" lon="1.3787">
        <ele>149</ele>
        <time>2023-07-08T05:23:49Z</time>
      </trkpt>
      <trkpt lat="43.64493" lon="1.37869">
        <ele>149</ele>
        <time>2023-07-08T05:23:50Z</time>
      </trkpt>
      <trkpt lat="43.6449" lon="1.37868">
        <ele>149</ele>
        <time>2023-07-08T05:23:51Z</time>
      </trkpt>
      <trkpt lat="43.64488" lon="1.37868">
        <ele>149</ele>
        <time>2023-07-08T05:23:52Z</time>
      </trkpt>
      <trkpt lat="43.64485" lon="1.37868">
        <ele>149</ele>
        <time>2023-07-08T05:23:53Z</time>
      </trkpt>
      <trkpt lat="43.64482" lon="1.37868">
        <ele>149</ele>
        <time>2023-07-08T05:23:54Z</time>
      </trkpt>
      <trkpt lat="43.6448" lon="1.37869">
        <ele>149</ele>
        <time>2023-07-08T05:23:55Z</time>
      </trkpt>
      <trkpt lat="43.64477" lon="1.37869">
        <ele>149</ele>
        <time>2023-07-08T05:23:56Z</time>
      </trkpt>
      <trkpt lat="43.64475" lon="1.37871">
        <ele>149</ele>
        <time>2023-07-08T05:23:57Z</time>
      </trkpt>
      <trkpt lat="43.64473" lon="1.37872">
        <ele>149</ele>
        <time>2023-07-08T05:23:58Z</time>
      </trkpt>
      <trkpt lat="43.64471" lon="1.37874">
        <ele>149</ele>
        <time>2023-07-08T05:23:59Z</time>
      </trkpt>
      <trkpt lat="43.64468" lon="1.37876">
        <ele>149</ele>
        <time>2023-07-08T05:24:00Z</time>
      </trkpt>
      <trkpt lat="43.64467" lon="1.37879">
        <ele>149</ele>
        <time>2023-07-08T05:24:01Z</time>
      </trkpt>
      <trkpt lat="43.64465" lon="1.37881">
        <ele>149</ele>
        <time>2023-07-08T05:24:02Z</time>
      </trkpt>
      <trkpt lat="43.64464" lon="1.37884">
        <ele>149</ele>
        <time>2023-07-08T05:24:03Z</time>
      </trkpt>
      <trkpt lat="43.64462" lon="1.37888">
        <ele>149</ele>
        <time>2023-07-08T05:24:04Z</time>
      </trkpt>
      <trkpt lat="43.64461" lon="1.37891">
        <ele>149</ele>
        <time>2023-07-08T05:24:05Z</time>
      </trkpt>
      <trkpt lat="43.6446" lon="1.37894">
        <ele>149</ele>
        <time>2023-07-08T05:24:06Z</time>
      </trkpt>
      <trkpt lat="43.64459" lon="1.37898">
        <ele>150</ele>
        <time>2023-07-08T05:24:07Z</time>
      </trkpt>
      <trkpt lat="43.64459" lon="1.37901">
        <ele>150</ele>
        <time>2023-07-08T05:24:08Z</time>
      </trkpt>
      <trkpt lat="43.64459" lon="1.37905">
        <ele>150</ele>
        <time>2023-07-08T05:24:09Z</time>
      </trkpt>
      <trkpt lat="43.64458" lon="1.37911">
        <ele>150</ele>
        <time>2023-07-08T05:24:10Z</time>
      </trkpt>
      <trkpt lat="43.64458" lon="1.37913">
        <ele>150</ele>
        <time>2023-07-08T05:24:11Z</time>
      </trkpt>
      <trkpt lat="43.64459" lon="1.37917">
        <ele>150</ele>
        <time>2023-07-08T05:24:12Z</time>
      </trkpt>
      <trkpt lat="43.6446" lon="1.3792">
        <ele>150</ele>
        <time>2023-07-08T05:24:13Z</time>
      </trkpt>
      <trkpt lat="43.64461" lon="1.37923">
        <ele>150</ele>
        <time>2023-07-08T05:24:14Z</time>
      </trkpt>
      <trkpt lat="43.64463" lon="1.37926">
        <ele>150</ele>
        <time>2023-07-08T05:24:15Z</time>
      </trkpt>
      <trkpt lat="43.64464" lon="1.37929">
        <ele>150</ele>
        <time>2023-07-08T05:24:16Z</time>
      </trkpt>
      <trkpt lat="43.64466" lon="1.37933">
        <ele>150</ele>
        <time>2023-07-08T05:24:17Z</time>
      </trkpt>
      <trkpt lat="43.64467" lon="1.37936">
        <ele>150</ele>
        <time>2023-07-08T05:24:18Z</time>
      </trkpt>
      <trkpt lat="43.64469" lon="1.37939">
        <ele>149</ele>
        <time>2023-07-08T05:24:19Z</time>
      </trkpt>
      <trkpt lat="43.64471" lon="1.37941">
        <ele>149</ele>
        <time>2023-07-08T05:24:20Z</time>
      </trkpt>
      <trkpt lat="43.64475" lon="1.37945">
        <ele>149</ele>
        <time>2023-07-08T05:24:21Z</time>
      </trkpt>
      <trkpt lat="43.64476" lon="1.37945">
        <ele>149</ele>
        <time>2023-07-08T05:24:22Z</time>
      </trkpt>
      <trkpt lat="43.64479" lon="1.37947">
        <ele>149</ele>
        <time>2023-07-08T05:24:23Z</time>
      </trkpt>
      <trkpt lat="43.64481" lon="1.37949">
        <ele>149</ele>
        <time>2023-07-08T05:24:24Z</time>
      </trkpt>
      <trkpt lat="43.64484" lon="1.3795">
        <ele>149</ele>
        <time>2023-07-08T05:24:25Z</time>
      </trkpt>
      <trkpt lat="43.64486" lon="1.37952">
        <ele>149</ele>
        <time>2023-07-08T05:24:26Z</time>
      </trkpt>
      <trkpt lat="43.64489" lon="1.37953">
        <ele>150</ele>
        <time>2023-07-08T05:24:27Z</time>
      </trkpt>
      <trkpt lat="43.64491" lon="1.37954">
        <ele>150</ele>
        <time>2023-07-08T05:24:28Z</time>
      </trkpt>
      <trkpt lat="43.64493" lon="1.37956">
        <ele>149</ele>
        <time>2023-07-08T05:24:29Z</time>
      </trkpt>
      <trkpt lat="43.64496" lon="1.37957">
        <ele>149</ele>
        <time>2023-07-08T05:24:30Z</time>
      </trkpt>
      <trkpt lat="43.64498" lon="1.37959">
        <ele>149</ele>
        <time>2023-07-08T05:24:31Z</time>
      </trkpt>
      <trkpt lat="43.64501" lon="1.3796">
        <ele>149</ele>
        <time>2023-07-08T05:24:32Z</time>
      </trkpt>
      <trkpt lat="43.64503" lon="1.37962">
        <ele>149</ele>
        <time>2023-07-08T05:24:33Z</time>
      </trkpt>
      <trkpt lat="43.64506" lon="1.37964">
        <ele>149</ele>
        <time>2023-07-08T05:24:34Z</time>
      </trkpt>
      <trkpt lat="43.64508" lon="1.37965">
        <ele>149</ele>
        <time>2023-07-08T05:24:35Z</time>
      </trkpt>
      <trkpt lat="43.6451" lon="1.37967">
        <ele>150</ele>
        <time>2023-07-08T05:24:36Z</time>
      </trkpt>
      <trkpt lat="43.64513" lon="1.37968">
        <ele>150</ele>
        <time>2023-07-08T05:24:37Z</time>
      </trkpt>
      <trkpt lat="43.64515" lon="1.37969">
        <ele>150</ele>
        <time>2023-07-08T05:24:38Z</time>
      </trkpt>
      <trkpt lat="43.64517" lon="1.37971">
        <ele>150</ele>
        <time>2023-07-08T05:24:39Z</time>
      </trkpt>
      <trkpt lat="43.6452" lon="1.37972">
        <ele>150</ele>
        <time>2023-07-08T05:24:40Z</time>
      </trkpt>
      <trkpt lat="43.64522" lon="1.37973">
        <ele>150</ele>
        <time>2023-07-08T05:24:41Z</time>
      </trkpt>
      <trkpt lat="43.64525" lon="1.37975">
        <ele>150</ele>
        <time>2023-07-08T05:24:42Z</time>
      </trkpt>
      <trkpt lat="43.64527" lon="1.37976">
        <ele>150</ele>
        <time>2023-07-08T05:24:43Z</time>
      </trkpt>
      <trkpt lat="43.6453" lon="1.37977">
        <ele>150</ele>
        <time>2023-07-08T05:24:44Z</time>
      </trkpt>
      <trkpt lat="43.64533" lon="1.37978">
        <ele>149</ele>
        <time>2023-07-08T05:24:45Z</time>
      </trkpt>
      <trkpt lat="43.64536" lon="1.37979">
        <ele>149</ele>
        <time>2023-07-08T05:24:46Z</time>
      </trkpt>
      <trkpt lat="43.64538" lon="1.37979">
        <ele>149</ele>
        <time>2023-07-08T05:24:47Z</time>
      </trkpt>
      <trkpt lat="43.64543" lon="1.37979">
        <ele>149</ele>
        <time>2023-07-08T05:24:48Z</time>
      </trkpt>
      <trkpt lat="43.64544" lon="1.37979">
        <ele>149</ele>
        <time>2023-07-08T05:24:49Z</time>
      </trkpt>
      <trkpt lat="43.64547" lon="1.37978">
        <ele>149</ele>
        <time>2023-07-08T05:24:50Z</time>
      </trkpt>
      <trkpt lat="43.6455" lon="1.37977">
        <ele>149</ele>
        <time>2023-07-08T05:24:51Z</time>
      </trkpt>
      <trkpt lat="43.64552" lon="1.37975">
        <ele>149</ele>
        <time>2023-07-08T05:24:52Z</time>
      </trkpt>
      <trkpt lat="43.64555" lon="1.37973">
        <ele>149</ele>
        <time>2023-07-08T05:24:53Z</time>
      </trkpt>
      <trkpt lat="43.64557" lon="1.37971">
        <ele>150</ele>
        <time>2023-07-08T05:24:54Z</time>
      </trkpt>
      <trkpt lat="43.64559" lon="1.37969">
        <ele>150</ele>
        <time>2023-07-08T05:24:55Z</time>
      </trkpt>
      <trkpt lat="43.64561" lon="1.37967">
        <ele>149</ele>
        <time>2023-07-08T05:24:56Z</time>
      </trkpt>
      <trkpt lat="43.64563" lon="1.37964">
        <ele>149</ele>
        <time>2023-07-08T05:24:57Z</time>
      </trkpt>
      <trkpt lat="43.64564" lon="1.37961">
        <ele>149</ele>
        <time>2023-07-08T05:24:58Z</time>
      </trkpt>
      <trkpt lat="43.64565" lon="1.37957">
        <ele>149</ele>
        <time>2023-07-08T05:24:59Z</time>
      </trkpt>
      <trkpt lat="43.64566" lon="1.37953">
        <ele>149</ele>
        <time>2023-07-08T05:25:00Z</time>
      </trkpt>
      <trkpt lat="43.64566" lon="1.3795">
        <ele>149</ele>
        <time>2023-07-08T05:25:01Z</time>
      </trkpt>
      <trkpt lat="43.64567" lon="1.37947">
        <ele>149</ele>
        <time>2023-07-08T05:25:02Z</time>
      </trkpt>
      <trkpt lat="43.64567" lon="1.37943">
        <ele>149</ele>
        <time>2023-07-08T05:25:03Z</time>
      </trkpt>
      <trkpt lat="43.64567" lon="1.37939">
        <ele>149</ele>
        <time>2023-07-08T05:25:04Z</time>
      </trkpt>
      <trkpt lat="43.64567" lon="1.37936">
        <ele>149</ele>
        <time>2023-07-08T05:25:05Z</time>
      </trkpt>
      <trkpt lat="43.64566" lon="1.37932">
        <ele>149</ele>
        <time>2023-07-08T05:25:06Z</time>
      </trkpt>
      <trkpt lat="43.64565" lon="1.37927">
        <ele>149</ele>
        <time>2023-07-08T05:25:07Z</time>
      </trkpt>
      <trkpt lat="43.64564" lon="1.37925">
        <ele>149</ele>
        <time>2023-07-08T05:25:08Z</time>
      </trkpt>
      <trkpt lat="43.64563" lon="1.37922">
        <ele>149</ele>
        <time>2023-07-08T05:25:09Z</time>
      </trkpt>
      <trkpt lat="43.64561" lon="1.37919">
        <ele>149</ele>
        <time>2023-07-08T05:25:10Z</time>
      </trkpt>
      <trkpt lat="43.64559" lon="1.37916">
        <ele>149</ele>
        <time>2023-07-08T05:25:11Z</time>
      </trkpt>
      <trkpt lat="43.64557" lon="1.37914">
        <ele>149</ele>
        <time>2023-07-08T05:25:12Z</time>
      </trkpt>
      <trkpt lat="43.64554" lon="1.37911">
        <ele>149</ele>
        <time>2023-07-08T05:25:13Z</time>
      </trkpt>
      <trkpt lat="43.64552" lon="1.37909">
        <ele>149</ele>
        <time>2023-07-08T05:25:14Z</time>
      </trkpt>
      <trkpt lat="43.64549" lon="1.37906">
        <ele>149</ele>
        <time>2023-07-08T05:25:15Z</time>
      </trkpt>
      <trkpt lat="43.64545" lon="1.37903">
        <ele>149</ele>
        <time>2023-07-08T05:25:16Z</time>
      </trkpt>
      <trkpt lat="43.64544" lon="1.37903">
        <ele>149</ele>
        <time>2023-07-08T05:25:17Z</time>
      </trkpt>
      <trkpt lat="43.64541" lon="1.37901">
        <ele>149</ele>
        <time>2023-07-08T05:25:18Z</time>
      </trkpt>
      <trkpt lat="43.64539" lon="1.379">
        <ele>149</ele>
        <time>2023-07-08T05:25:19Z</time>
      </trkpt>
      <trkpt lat="43.64537" lon="1.37898">
        <ele>149</ele>
        <time>2023-07-08T05:25:20Z</time>
      </trkpt>
      <trkpt lat="43.64534" lon="1.37896">
        <ele>149</ele>
        <time>2023-07-08T05:25:21Z</time>
      </trkpt>
      <trkpt lat="43.64531" lon="1.37894">
        <ele>149</ele>
        <time>2023-07-08T05:25:22Z</time>
      </trkpt>
      <trkpt lat="43.64529" lon="1.37893">
        <ele>149</ele>
        <time>2023-07-08T05:25:23Z</time>
      </trkpt>
      <trkpt lat="43.64526" lon="1.37891">
        <ele>150</ele>
        <time>2023-07-08T05:25:24Z</time>
      </trkpt>
      <trkpt lat="43.64523" lon="1.37889">
        <ele>150</ele>
        <time>2023-07-08T05:25:25Z</time>
      </trkpt>
      <trkpt lat="43.6452" lon="1.37888">
        <ele>149</ele>
        <time>2023-07-08T05:25:26Z</time>
      </trkpt>
      <trkpt lat="43.64517" lon="1.37886">
        <ele>149</ele>
        <time>2023-07-08T05:25:27Z</time>
      </trkpt>
      <trkpt lat="43.64515" lon="1.37885">
        <ele>149</ele>
        <time>2023-07-08T05:25:28Z</time>
      </trkpt>
      <trkpt lat="43.64512" lon="1.37883">
        <ele>149</ele>
        <time>2023-07-08T05:25:29Z</time>
      </trkpt>
      <trkpt lat="43.64509" lon="1.37881">
        <ele>149</ele>
        <time>2023-07-08T05:25:30Z</time>
      </trkpt>
      <trkpt lat="43.64507" lon="1.3788">
        <ele>149</ele>
        <time>2023-07-08T05:25:31Z</time>
      </trkpt>
      <trkpt lat="43.64504" lon="1.37878">
        <ele>149</ele>
        <time>2023-07-08T05:25:32Z</time>
      </trkpt>
      <trkpt lat="43.64502" lon="1.37876">
        <ele>149</ele>
        <time>2023-07-08T05:25:33Z</time>
      </trkpt>
      <trkpt lat="43.64499" lon="1.37875">
        <ele>149</ele>
        <time>2023-07-08T05:25:34Z</time>
      </trkpt>
      <trkpt lat="43.64496" lon="1.37874">
        <ele>149</ele>
        <time>2023-07-08T05:25:35Z</time>
      </trkpt>
      <trkpt lat="43.64493" lon="1.37872">
        <ele>149</ele>
        <time>2023-07-08T05:25:36Z</time>
      </trkpt>
      <trkpt lat="43.6449" lon="1.37871">
        <ele>149</ele>
        <time>2023-07-08T05:25:37Z</time>
      </trkpt>
      <trkpt lat="43.64486" lon="1.3787">
        <ele>149</ele>
        <time>2023-07-08T05:25:38Z</time>
      </trkpt>
      <trkpt lat="43.64485" lon="1.37869">
        <ele>150</ele>
        <time>2023-07-08T05:25:39Z</time>
      </trkpt>
      <trkpt lat="43.64481" lon="1.37869">
        <ele>150</ele>
        <time>2023-07-08T05:25:40Z</time>
      </trkpt>
      <trkpt lat="43.6448" lon="1.37869">
        <ele>149</ele>
        <time>2023-07-08T05:25:41Z</time>
      </trkpt>
      <trkpt lat="43.64477" lon="1.3787">
        <ele>149</ele>
        <time>2023-07-08T05:25:42Z</time>
      </trkpt>
      <trkpt lat="43.64474" lon="1.37871">
        <ele>149</ele>
        <time>2023-07-08T05:25:43Z</time>
      </trkpt>
      <trkpt lat="43.64471" lon="1.37873">
        <ele>149</ele>
        <time>2023-07-08T05:25:44Z</time>
      </trkpt>
      <trkpt lat="43.64469" lon="1.37875">
        <ele>149</ele>
        <time>2023-07-08T05:25:45Z</time>
      </trkpt>
      <trkpt lat="43.64467" lon="1.37877">
        <ele>149</ele>
        <time>2023-07-08T05:25:46Z</time>
      </trkpt>
      <trkpt lat="43.64465" lon="1.3788">
        <ele>149</ele>
        <time>2023-07-08T05:25:47Z</time>
      </trkpt>
      <trkpt lat="43.64463" lon="1.37883">
        <ele>149</ele>
        <time>2023-07-08T05:25:48Z</time>
      </trkpt>
      <trkpt lat="43.64461" lon="1.37886">
        <ele>149</ele>
        <time>2023-07-08T05:25:49Z</time>
      </trkpt>
      <trkpt lat="43.64459" lon="1.37889">
        <ele>149</ele>
        <time>2023-07-08T05:25:50Z</time>
      </trkpt>
      <trkpt lat="43.64458" lon="1.37893">
        <ele>149</ele>
        <time>2023-07-08T05:25:51Z</time>
      </trkpt>
      <trkpt lat="43.64457" lon="1.37896">
        <ele>149</ele>
        <time>2023-07-08T05:25:52Z</time>
      </trkpt>
      <trkpt lat="43.64456" lon="1.37901">
        <ele>149</ele>
        <time>2023-07-08T05:25:53Z</time>
      </trkpt>
      <trkpt lat="43.64455" lon="1.37905">
        <ele>149</ele>
        <time>2023-07-08T05:25:54Z</time>
      </trkpt>
      <trkpt lat="43.64455" lon="1.37909">
        <ele>149</ele>
        <time>2023-07-08T05:25:55Z</time>
      </trkpt>
      <trkpt lat="43.64456" lon="1.37913">
        <ele>149</ele>
        <time>2023-07-08T05:25:56Z</time>
      </trkpt>
      <trkpt lat="43.64457" lon="1.37917">
        <ele>149</ele>
        <time>2023-07-08T05:25:57Z</time>
      </trkpt>
      <trkpt lat="43.64458" lon="1.37921">
        <ele>150</ele>
        <time>2023-07-08T05:25:58Z</time>
      </trkpt>
      <trkpt lat="43.64459" lon="1.37924">
        <ele>150</ele>
        <time>2023-07-08T05:25:59Z</time>
      </trkpt>
      <trkpt lat="43.64461" lon="1.37928">
        <ele>150</ele>
        <time>2023-07-08T05:26:00Z</time>
      </trkpt>
      <trkpt lat="43.64462" lon="1.37932">
        <ele>150</ele>
        <time>2023-07-08T05:26:01Z</time>
      </trkpt>
      <trkpt lat="43.64464" lon="1.37935">
        <ele>149</ele>
        <time>2023-07-08T05:26:02Z</time>
      </trkpt>
      <trkpt lat="43.64466" lon="1.37938">
        <ele>149</ele>
        <time>2023-07-08T05:26:03Z</time>
      </trkpt>
      <trkpt lat="43.64469" lon="1.37941">
        <ele>149</ele>
        <time>2023-07-08T05:26:04Z</time>
      </trkpt>
      <trkpt lat="43.64471" lon="1.37943">
        <ele>149</ele>
        <time>2023-07-08T05:26:05Z</time>
      </trkpt>
      <trkpt lat="43.64474" lon="1.37945">
        <ele>149</ele>
        <time>2023-07-08T05:26:06Z</time>
      </trkpt>
      <trkpt lat="43.64477" lon="1.37947">
        <ele>149</ele>
        <time>2023-07-08T05:26:07Z</time>
      </trkpt>
      <trkpt lat="43.6448" lon="1.37949">
        <ele>149</ele>
        <time>2023-07-08T05:26:08Z</time>
      </trkpt>
      <trkpt lat="43.64483" lon="1.3795">
        <ele>149</ele>
        <time>2023-07-08T05:26:09Z</time>
      </trkpt>
      <trkpt lat="43.64486" lon="1.37952">
        <ele>149</ele>
        <time>2023-07-08T05:26:10Z</time>
      </trkpt>
      <trkpt lat="43.64488" lon="1.37954">
        <ele>149</ele>
        <time>2023-07-08T05:26:11Z</time>
      </trkpt>
      <trkpt lat="43.64491" lon="1.37956">
        <ele>149</ele>
        <time>2023-07-08T05:26:12Z</time>
      </trkpt>
      <trkpt lat="43.64494" lon="1.37957">
        <ele>149</ele>
        <time>2023-07-08T05:26:13Z</time>
      </trkpt>
      <trkpt lat="43.64498" lon="1.37959">
        <ele>149</ele>
        <time>2023-07-08T05:26:14Z</time>
      </trkpt>
      <trkpt lat="43.645" lon="1.3796">
        <ele>149</ele>
        <time>2023-07-08T05:26:15Z</time>
      </trkpt>
      <trkpt lat="43.64503" lon="1.37962">
        <ele>149</ele>
        <time>2023-07-08T05:26:16Z</time>
      </trkpt>
      <trkpt lat="43.64506" lon="1.37964">
        <ele>149</ele>
        <time>2023-07-08T05:26:17Z</time>
      </trkpt>
      <trkpt lat="43.64509" lon="1.37966">
        <ele>149</ele>
        <time>2023-07-08T05:26:18Z</time>
      </trkpt>
      <trkpt lat="43.64512" lon="1.37967">
        <ele>149</ele>
        <time>2023-07-08T05:26:19Z</time>
      </trkpt>
      <trkpt lat="43.64515" lon="1.37969">
        <ele>149</ele>
        <time>2023-07-08T05:26:20Z</time>
      </trkpt>
      <trkpt lat="43.64518" lon="1.37971">
        <ele>149</ele>
        <time>2023-07-08T05:26:21Z</time>
      </trkpt>
      <trkpt lat="43.64521" lon="1.37973">
        <ele>149</ele>
        <time>2023-07-08T05:26:22Z</time>
      </trkpt>
      <trkpt lat="43.64525" lon="1.37976">
        <ele>149</ele>
        <time>2023-07-08T05:26:23Z</time>
      </trkpt>
      <trkpt lat="43.64527" lon="1.37976">
        <ele>149</ele>
        <time>2023-07-08T05:26:24Z</time>
      </trkpt>
      <trkpt lat="43.6453" lon="1.37978">
        <ele>149</ele>
        <time>2023-07-08T05:26:25Z</time>
      </trkpt>
      <trkpt lat="43.64533" lon="1.37979">
        <ele>149</ele>
        <time>2023-07-08T05:26:26Z</time>
      </trkpt>
      <trkpt lat="43.64536" lon="1.3798">
        <ele>150</ele>
        <time>2023-07-08T05:26:27Z</time>
      </trkpt>
      <trkpt lat="43.64539" lon="1.3798">
        <ele>150</ele>
        <time>2023-07-08T05:26:28Z</time>
      </trkpt>
      <trkpt lat="43.64542" lon="1.3798">
        <ele>149</ele>
        <time>2023-07-08T05:26:29Z</time>
      </trkpt>
      <trkpt lat="43.64545" lon="1.37979">
        <ele>149</ele>
        <time>2023-07-08T05:26:30Z</time>
      </trkpt>
      <trkpt lat="43.64548" lon="1.37979">
        <ele>149</ele>
        <time>2023-07-08T05:26:31Z</time>
      </trkpt>
      <trkpt lat="43.64551" lon="1.37977">
        <ele>149</ele>
        <time>2023-07-08T05:26:32Z</time>
      </trkpt>
      <trkpt lat="43.64555" lon="1.37976">
        <ele>149</ele>
        <time>2023-07-08T05:26:33Z</time>
      </trkpt>
      <trkpt lat="43.64557" lon="1.37974">
        <ele>149</ele>
        <time>2023-07-08T05:26:34Z</time>
      </trkpt>
      <trkpt lat="43.6456" lon="1.37972">
        <ele>149</ele>
        <time>2023-07-08T05:26:35Z</time>
      </trkpt>
      <trkpt lat="43.64563" lon="1.3797">
        <ele>149</ele>
        <time>2023-07-08T05:26:36Z</time>
      </trkpt>
      <trkpt lat="43.64566" lon="1.37968">
        <ele>149</ele>
        <time>2023-07-08T05:26:37Z</time>
      </trkpt>
      <trkpt lat="43.64568" lon="1.37965">
        <ele>149</ele>
        <time>2023-07-08T05:26:38Z</time>
      </trkpt>
      <trkpt lat="43.64569" lon="1.37962">
        <ele>150</ele>
        <time>2023-07-08T05:26:39Z</time>
      </trkpt>
      <trkpt lat="43.64571" lon="1.37959">
        <ele>150</ele>
        <time>2023-07-08T05:26:40Z</time>
      </trkpt>
      <trkpt lat="43.64572" lon="1.37956">
        <ele>150</ele>
        <time>2023-07-08T05:26:41Z</time>
      </trkpt>
      <trkpt lat="43.64573" lon="1.37953">
        <ele>150</ele>
        <time>2023-07-08T05:26:42Z</time>
      </trkpt>
      <trkpt lat="43.64574" lon="1.37949">
        <ele>150</ele>
        <time>2023-07-08T05:26:43Z</time>
      </trkpt>
      <trkpt lat="43.64574" lon="1.37946">
        <ele>150</ele>
        <time>2023-07-08T05:26:44Z</time>
      </trkpt>
      <trkpt lat="43.64573" lon="1.37941">
        <ele>150</ele>
        <time>2023-07-08T05:26:45Z</time>
      </trkpt>
      <trkpt lat="43.64572" lon="1.37937">
        <ele>150</ele>
        <time>2023-07-08T05:26:46Z</time>
      </trkpt>
      <trkpt lat="43.6457" lon="1.37933">
        <ele>150</ele>
        <time>2023-07-08T05:26:47Z</time>
      </trkpt>
      <trkpt lat="43.64567" lon="1.37929">
        <ele>150</ele>
        <time>2023-07-08T05:26:48Z</time>
      </trkpt>
      <trkpt lat="43.64565" lon="1.37925">
        <ele>150</ele>
        <time>2023-07-08T05:26:49Z</time>
      </trkpt>
      <trkpt lat="43.64561" lon="1.37921">
        <ele>150</ele>
        <time>2023-07-08T05:26:50Z</time>
      </trkpt>
      <trkpt lat="43.64558" lon="1.37917">
        <ele>149</ele>
        <time>2023-07-08T05:26:51Z</time>
      </trkpt>
      <trkpt lat="43.64555" lon="1.37914">
        <ele>149</ele>
        <time>2023-07-08T05:26:52Z</time>
      </trkpt>
      <trkpt lat="43.64552" lon="1.37911">
        <ele>149</ele>
        <time>2023-07-08T05:26:53Z</time>
      </trkpt>
      <trkpt lat="43.64549" lon="1.37908">
        <ele>149</ele>
        <time>2023-07-08T05:26:54Z</time>
      </trkpt>
      <trkpt lat="43.64547" lon="1.37906">
        <ele>149</ele>
        <time>2023-07-08T05:26:55Z</time>
      </trkpt>
      <trkpt lat="43.64544" lon="1.37903">
        <ele>149</ele>
        <time>2023-07-08T05:26:56Z</time>
      </trkpt>
      <trkpt lat="43.64541" lon="1.37902">
        <ele>149</ele>
        <time>2023-07-08T05:26:57Z</time>
      </trkpt>
      <trkpt lat="43.64538" lon="1.379">
        <ele>149</ele>
        <time>2023-07-08T05:26:58Z</time>
      </trkpt>
      <trkpt lat="43.64536" lon="1.37898">
        <ele>149</ele>
        <time>2023-07-08T05:26:59Z</time>
      </trkpt>
      <trkpt lat="43.64533" lon="1.37896">
        <ele>149</ele>
        <time>2023-07-08T05:27:00Z</time>
      </trkpt>
      <trkpt lat="43.64528" lon="1.37893">
        <ele>149</ele>
        <time>2023-07-08T05:27:01Z</time>
      </trkpt>
      <trkpt lat="43.64527" lon="1.37893">
        <ele>149</ele>
        <time>2023-07-08T05:27:02Z</time>
      </trkpt>
      <trkpt lat="43.64524" lon="1.37891">
        <ele>149</ele>
        <time>2023-07-08T05:27:03Z</time>
      </trkpt>
      <trkpt lat="43.64521" lon="1.37889">
        <ele>149</ele>
        <time>2023-07-08T05:27:04Z</time>
      </trkpt>
      <trkpt lat="43.64518" lon="1.37887">
        <ele>149</ele>
        <time>2023-07-08T05:27:05Z</time>
      </trkpt>
      <trkpt lat="43.64515" lon="1.37886">
        <ele>149</ele>
        <time>2023-07-08T05:27:06Z</time>
      </trkpt>
      <trkpt lat="43.64512" lon="1.37884">
        <ele>149</ele>
        <time>2023-07-08T05:27:07Z</time>
      </trkpt>
      <trkpt lat="43.64509" lon="1.37883">
        <ele>150</ele>
        <time>2023-07-08T05:27:08Z</time>
      </trkpt>
      <trkpt lat="43.64507" lon="1.37881">
        <ele>150</ele>
        <time>2023-07-08T05:27:09Z</time>
      </trkpt>
      <trkpt lat="43.64504" lon="1.37879">
        <ele>150</ele>
        <time>2023-07-08T05:27:10Z</time>
      </trkpt>
      <trkpt lat="43.64501" lon="1.37877">
        <ele>150</ele>
        <time>2023-07-08T05:27:11Z</time>
      </trkpt>
      <trkpt lat="43.64499" lon="1.37876">
        <ele>150</ele>
        <time>2023-07-08T05:27:12Z</time>
      </trkpt>
      <trkpt lat="43.64496" lon="1.37874">
        <ele>150</ele>
        <time>2023-07-08T05:27:13Z</time>
      </trkpt>
      <trkpt lat="43.64493" lon="1.37873">
        <ele>150</ele>
        <time>2023-07-08T05:27:14Z</time>
      </trkpt>
      <trkpt lat="43.64491" lon="1.37872">
        <ele>150</ele>
        <time>2023-07-08T05:27:15Z</time>
      </trkpt>
      <trkpt lat="43.64489" lon="1.37871">
        <ele>150</ele>
        <time>2023-07-08T05:27:16Z</time>
      </trkpt>
      <trkpt lat="43.64489" lon="1.37871">
        <ele>149</ele>
        <time>2023-07-08T05:27:17Z</time>
      </trkpt>
      <trkpt lat="43.64487" lon="1.3787">
        <ele>149</ele>
        <time>2023-07-08T05:27:18Z</time>
      </trkpt>
      <trkpt lat="43.64487" lon="1.3787">
        <ele>149</ele>
        <time>2023-07-08T05:27:19Z</time>
      </trkpt>
      <trkpt lat="43.64484" lon="1.3787">
        <ele>149</ele>
        <time>2023-07-08T05:27:20Z</time>
      </trkpt>
      <trkpt lat="43.64484" lon="1.3787">
        <ele>149</ele>
        <time>2023-07-08T05:27:21Z</time>
      </trkpt>
      <trkpt lat="43.64482" lon="1.37871">
        <ele>149</ele>
        <time>2023-07-08T05:27:22Z</time>
      </trkpt>
      <trkpt lat="43.64482" lon="1.37871">
        <ele>149</ele>
        <time>2023-07-08T05:27:23Z</time>
      </trkpt>
      <trkpt lat="43.6448" lon="1.37871">
        <ele>149</ele>
        <time>2023-07-08T05:27:24Z</time>
      </trkpt>
      <trkpt lat="43.6448" lon="1.37871">
        <ele>149</ele>
        <time>2023-07-08T05:27:25Z</time>
      </trkpt>
      <trkpt lat="43.64477" lon="1.37871">
        <ele>149</ele>
        <time>2023-07-08T05:27:26Z</time>
      </trkpt>
      <trkpt lat="43.64477" lon="1.37871">
        <ele>149</ele>
        <time>2023-07-08T05:27:27Z</time>
      </trkpt>
      <trkpt lat="43.64475" lon="1.37871">
        <ele>149</ele>
        <time>2023-07-08T05:27:28Z</time>
      </trkpt>
      <trkpt lat="43.64475" lon="1.37871">
        <ele>149</ele>
        <time>2023-07-08T05:27:29Z</time>
      </trkpt>
      <trkpt lat="43.64473" lon="1.37872">
        <ele>149</ele>
        <time>2023-07-08T05:27:30Z</time>
      </trkpt>
      <trkpt lat="43.64473" lon="1.37872">
        <ele>149</ele>
        <time>2023-07-08T05:27:31Z</time>
      </trkpt>
      <trkpt lat="43.64473" lon="1.37872">
        <ele>149</ele>
        <time>2023-07-08T05:27:32Z</time>
      </trkpt>
      <trkpt lat="43.6447" lon="1.37873">
        <ele>149</ele>
        <time>2023-07-08T05:27:33Z</time>
      </trkpt>
      <trkpt lat="43.6447" lon="1.37873">
        <ele>149</ele>
        <time>2023-07-08T05:27:34Z</time>
      </trkpt>
      <trkpt lat="43.6447" lon="1.37873">
        <ele>150</ele>
        <time>2023-07-08T05:27:35Z</time>
      </trkpt>
      <trkpt lat="43.6447" lon="1.37873">
        <ele>150</ele>
        <time>2023-07-08T05:27:36Z</time>
      </trkpt>
      <trkpt lat="43.6447" lon="1.37873">
        <ele>150</ele>
        <time>2023-07-08T05:27:37Z</time>
      </trkpt>
      <trkpt lat="43.6447" lon="1.37873">
        <ele>150</ele>
        <time>2023-07-08T05:27:38Z</time>
      </trkpt>
      <trkpt lat="43.6447" lon="1.37873">
        <ele>150</ele>
        <time>2023-07-08T05:27:39Z</time>
      </trkpt>
      <trkpt lat="43.6447" lon="1.37873">
        <ele>150</ele>
        <time>2023-07-08T05:27:40Z</time>
      </trkpt>
      <trkpt lat="43.64469" lon="1.37875">
        <ele>150</ele>
        <time>2023-07-08T05:27:41Z</time>
      </trkpt>
      <trkpt lat="43.64469" lon="1.37875">
        <ele>150</ele>
        <time>2023-07-08T05:27:42Z</time>
      </trkpt>
      <trkpt lat="43.64467" lon="1.37877">
        <ele>149</ele>
        <time>2023-07-08T05:27:43Z</time>
      </trkpt>
      <trkpt lat="43.64467" lon="1.37877">
        <ele>149</ele>
        <time>2023-07-08T05:27:44Z</time>
      </trkpt>
      <trkpt lat="43.64465" lon="1.37879">
        <ele>149</ele>
        <time>2023-07-08T05:27:45Z</time>
      </trkpt>
      <trkpt lat="43.64465" lon="1.37879">
        <ele>149</ele>
        <time>2023-07-08T05:27:46Z</time>
      </trkpt>
      <trkpt lat="43.64464" lon="1.37882">
        <ele>149</ele>
        <time>2023-07-08T05:27:47Z</time>
      </trkpt>
      <trkpt lat="43.64464" lon="1.37882">
        <ele>150</ele>
        <time>2023-07-08T05:27:48Z</time>
      </trkpt>
      <trkpt lat="43.64464" lon="1.37882">
        <ele>151</ele>
        <time>2023-07-08T05:27:49Z</time>
      </trkpt>
      <trkpt lat="43.64464" lon="1.37882">
        <ele>151</ele>
        <time>2023-07-08T05:27:50Z</time>
      </trkpt>
      <trkpt lat="43.64464" lon="1.37882">
        <ele>151</ele>
        <time>2023-07-08T05:27:51Z</time>
      </trkpt>
      <trkpt lat="43.64464" lon="1.37882">
        <ele>151</ele>
        <time>2023-07-08T05:27:52Z</time>
      </trkpt>
      <trkpt lat="43.64464" lon="1.37882">
        <ele>151</ele>
        <time>2023-07-08T05:27:53Z</time>
      </trkpt>
      <trkpt lat="43.64464" lon="1.37884">
        <ele>150</ele>
        <time>2023-07-08T05:27:54Z</time>
      </trkpt>
      <trkpt lat="43.64464" lon="1.37884">
        <ele>150</ele>
        <time>2023-07-08T05:27:55Z</time>
      </trkpt>
      <trkpt lat="43.64463" lon="1.37887">
        <ele>149</ele>
        <time>2023-07-08T05:27:56Z</time>
      </trkpt>
      <trkpt lat="43.64463" lon="1.37887">
        <ele>149</ele>
        <time>2023-07-08T05:27:57Z</time>
      </trkpt>
      <trkpt lat="43.64462" lon="1.37889">
        <ele>149</ele>
        <time>2023-07-08T05:27:58Z</time>
      </trkpt>
      <trkpt lat="43.64462" lon="1.37889">
        <ele>149</ele>
        <time>2023-07-08T05:27:59Z</time>
      </trkpt>
      <trkpt lat="43.64462" lon="1.37889">
        <ele>149</ele>
        <time>2023-07-08T05:28:00Z</time>
      </trkpt>
      <trkpt lat="43.64461" lon="1.37892">
        <ele>149</ele>
        <time>2023-07-08T05:28:01Z</time>
      </trkpt>
      <trkpt lat="43.64461" lon="1.37892">
        <ele>149</ele>
        <time>2023-07-08T05:28:02Z</time>
      </trkpt>
      <trkpt lat="43.64461" lon="1.37892">
        <ele>149</ele>
        <time>2023-07-08T05:28:03Z</time>
      </trkpt>
      <trkpt lat="43.64461" lon="1.37895">
        <ele>149</ele>
        <time>2023-07-08T05:28:04Z</time>
      </trkpt>
      <trkpt lat="43.64461" lon="1.37895">
        <ele>149</ele>
        <time>2023-07-08T05:28:05Z</time>
      </trkpt>
      <trkpt lat="43.64461" lon="1.37895">
        <ele>149</ele>
        <time>2023-07-08T05:28:06Z</time>
      </trkpt>
      <trkpt lat="43.6446" lon="1.37898">
        <ele>149</ele>
        <time>2023-07-08T05:28:07Z</time>
      </trkpt>
    </trkseg>
  </trk>
</gpx>